Time;durP1;ratioP1;P1;durP2;ratioP2;P2;SDS_P1;SDS_P2;PMS_P1;PMS_P2;Temp;Humidity;BMP_temperature;BMP_pressure;BME280_temperature;BME280_humidity;BME280_pressure;Samples;Min_cycle;Max_cycle;Signal;HPM_P1;HPM_P2
2022/01/29 00:00:10;;;;;;;;;100.67;60.67;;;;;7.62;75.25;103054.38;5066883;28;47338;-75
2022/01/29 00:02:35;;;;;;;;;57.00;42.25;;;;;7.63;75.54;103057.00;5053612;28;45507;-75
2022/01/29 00:05:01;;;;;;;;;46.75;37.00;;;;;7.47;75.53;103029.56;5057651;28;45546;-75
2022/01/29 00:07:26;;;;;;;;;58.75;40.25;;;;;7.54;75.33;103029.66;5089396;27;45458;-75
2022/01/29 00:09:51;;;;;;;;;58.25;39.00;;;;;7.67;75.76;103056.19;5066295;27;45572;-74
2022/01/29 00:12:17;;;;;;;;;51.75;38.25;;;;;7.49;75.96;103013.75;5062266;27;45402;-75
2022/01/29 00:14:44;;;;;;;;;49.50;38.00;;;;;7.48;75.89;102998.81;5059685;28;45500;-75
2022/01/29 00:17:12;;;;;;;;;49.50;37.50;;;;;7.44;75.80;102983.81;5057325;28;45509;-75
2022/01/29 00:19:40;;;;;;;;;50.75;35.25;;;;;7.65;75.88;103023.66;5055689;28;46049;-75
2022/01/29 00:22:06;;;;;;;;;59.50;43.00;;;;;7.79;76.08;103033.50;5059113;28;45420;-75
2022/01/29 00:24:31;;;;;;;;;30.50;29.25;;;;;7.82;75.82;103038.81;5060495;28;45500;-75
2022/01/29 00:26:57;;;;;;;;;52.25;37.50;;;;;7.66;75.99;103003.47;5063354;28;45413;-75
2022/01/29 00:29:23;;;;;;;;;40.75;33.50;;;;;7.73;75.77;103008.84;5069977;27;46148;-75
2022/01/29 00:31:48;;;;;;;;;52.00;37.00;;;;;7.52;76.01;102963.75;5056581;28;45292;-75
2022/01/29 00:34:14;;;;;;;;;36.25;29.00;;;;;7.92;76.12;103030.19;5090873;27;45523;-75
2022/01/29 00:36:39;;;;;;;;;41.25;30.75;;;;;7.96;76.43;103026.72;5058700;28;45468;-75
2022/01/29 00:39:05;;;;;;;;;52.25;37.50;;;;;7.97;76.68;103024.13;5058992;28;46368;-75
2022/01/29 00:41:30;;;;;;;;;46.50;34.25;;;;;7.96;75.96;103022.31;5058862;28;45633;-75
2022/01/29 00:43:56;;;;;;;;;34.25;28.75;;;;;7.61;76.11;102955.06;5058305;28;45479;-75
2022/01/29 00:46:21;;;;;;;;;37.00;30.25;;;;;7.97;76.12;103008.28;5056782;27;45291;-75
2022/01/29 00:48:47;;;;;;;;;39.00;34.75;;;;;7.86;76.39;102988.81;5059886;27;45280;-75
2022/01/29 00:51:12;;;;;;;;;39.50;28.50;;;;;8.00;76.37;103012.72;5062274;28;45492;-74
2022/01/29 00:53:38;;;;;;;;;37.25;30.00;;;;;7.80;76.47;102965.00;5060030;28;45395;-75
2022/01/29 00:56:06;;;;;;;;;56.25;40.75;;;;;8.09;76.25;103009.28;5057168;28;45611;-75
2022/01/29 00:58:32;;;;;;;;;51.75;35.75;;;;;7.86;76.43;102964.19;5087994;27;46154;-75
2022/01/29 01:00:58;;;;;;;;;40.00;34.25;;;;;8.03;76.28;102974.94;5060455;27;45474;-75
2022/01/29 01:03:23;;;;;;;;;38.75;30.50;;;;;7.92;76.12;102945.81;5061276;28;45443;-75
2022/01/29 01:05:48;;;;;;;;;48.75;34.75;;;;;7.99;76.57;102952.91;5058636;28;45348;-75
2022/01/29 01:08:14;;;;;;;;;39.50;31.25;;;;;8.14;76.38;102970.66;5058106;28;45462;-74
2022/01/29 01:10:39;;;;;;;;;35.75;29.50;;;;;8.10;76.75;102961.84;5055327;27;45355;-75
2022/01/29 01:13:05;;;;;;;;;29.75;24.25;;;;;8.18;76.70;102960.19;5057874;28;45738;-75
2022/01/29 01:15:31;;;;;;;;;35.25;28.75;;;;;7.68;76.65;102877.88;5067783;28;45411;-75
2022/01/29 01:17:56;;;;;;;;;33.50;27.25;;;;;8.19;76.85;102961.06;5064807;28;45648;-75
2022/01/29 01:20:22;;;;;;;;;36.00;28.75;;;;;8.21;77.59;102956.72;5062123;28;45467;-75
2022/01/29 01:22:47;;;;;;;;;60.75;38.25;;;;;8.25;76.60;102945.31;5054109;28;45319;-75
2022/01/29 01:25:12;;;;;;;;;41.25;33.25;;;;;7.95;76.74;102885.22;5084229;27;45354;-76
2022/01/29 01:27:38;;;;;;;;;36.75;29.50;;;;;8.11;76.93;102916.13;5080833;27;46057;-77
2022/01/29 01:30:04;;;;;;;;;31.00;23.25;;;;;8.33;76.82;102945.41;5065000;27;45324;-77
2022/01/29 01:32:29;;;;;;;;;35.00;23.75;;;;;8.24;77.11;102924.19;5058225;28;45445;-76
2022/01/29 01:35:05;;;;;;;;;30.00;24.50;;;;;8.18;77.50;102915.34;5065095;27;45545;-77
2022/01/29 01:37:36;;;;;;;;;36.75;30.25;;;;;8.33;77.58;102940.13;5067013;27;46473;-76
2022/01/29 01:40:03;;;;;;;;;39.00;28.00;;;;;8.34;77.48;102933.97;5074115;27;45408;-76
2022/01/29 01:42:28;;;;;;;;;25.25;17.00;;;;;8.20;77.43;102916.22;5060658;27;45404;-77
2022/01/29 01:44:55;;;;;;;;;22.75;19.50;;;;;8.27;78.05;102913.69;5058402;28;45364;-77
2022/01/29 01:47:20;;;;;;;;;19.00;15.25;;;;;8.32;78.03;102911.94;5081518;27;45456;-77
2022/01/29 01:49:46;;;;;;;;;17.25;14.75;;;;;8.33;78.37;102905.81;5066795;27;45297;-76
2022/01/29 01:52:13;;;;;;;;;21.25;19.25;;;;;8.27;78.58;102895.22;5079346;27;45393;-76
2022/01/29 01:54:40;;;;;;;;;18.25;14.50;;;;;8.36;78.71;102913.75;5068794;27;45741;-76
2022/01/29 01:57:05;;;;;;;;;19.75;15.00;;;;;8.15;79.26;102888.94;5073988;27;47224;-76
2022/01/29 01:59:32;;;;;;;;;22.75;13.75;;;;;8.07;79.37;102872.16;5075513;27;45417;-76
2022/01/29 02:01:57;;;;;;;;;21.50;15.50;;;;;8.00;79.23;102862.41;5078713;27;45332;-76
2022/01/29 02:04:23;;;;;;;;;17.00;12.25;;;;;8.33;79.31;102913.75;5076967;27;45247;-76
2022/01/29 02:06:53;;;;;;;;;16.50;14.75;;;;;8.27;79.31;102895.22;5086028;27;46127;-76
2022/01/29 02:09:21;;;;;;;;;23.00;17.25;;;;;8.28;79.75;102889.94;5078177;27;45488;-76
2022/01/29 02:11:54;;;;;;;;;25.75;18.50;;;;;8.39;79.60;102898.00;5075443;27;45308;-76
2022/01/29 02:14:27;;;;;;;;;17.00;15.25;;;;;8.35;79.56;102896.16;5076807;27;45444;-76
2022/01/29 02:16:53;;;;;;;;;19.50;17.00;;;;;8.12;79.39;102867.81;5080172;27;48113;-76
2022/01/29 02:19:18;;;;;;;;;20.25;17.75;;;;;8.29;79.36;102891.69;5077020;28;45654;-76
2022/01/29 02:21:44;;;;;;;;;19.50;15.00;;;;;8.33;79.86;102898.78;5075580;27;45523;-77
2022/01/29 02:24:09;;;;;;;;;17.50;14.25;;;;;8.14;80.15;102866.06;5075640;27;45476;-77
2022/01/29 02:26:35;;;;;;;;;17.75;13.75;;;;;8.37;79.86;102889.13;5076426;27;47756;-77
2022/01/29 02:29:00;;;;;;;;;17.75;14.50;;;;;8.14;80.35;102842.31;5077072;27;45543;-77
2022/01/29 02:31:25;;;;;;;;;12.00;7.50;;;;;8.29;79.96;102872.34;5078448;27;45726;-76
2022/01/29 02:33:51;;;;;;;;;16.00;14.00;;;;;8.24;80.38;102860.91;5080886;27;45344;-76
2022/01/29 02:36:16;;;;;;;;;12.25;11.25;;;;;8.37;80.09;102870.66;5082240;27;46519;-77
2022/01/29 02:38:42;;;;;;;;;16.75;16.25;;;;;8.16;80.03;102824.75;5074403;27;45413;-77
2022/01/29 02:41:08;;;;;;;;;16.25;15.50;;;;;8.43;79.75;102869.88;5075152;27;45480;-77
2022/01/29 02:43:49;;;;;;;;;17.75;13.75;;;;;8.42;79.82;102863.72;5074784;27;45537;-76
2022/01/29 02:48:45;;;;;;;;;16.75;14.00;;;;;8.12;79.98;102801.88;5075650;27;45271;-77
2022/01/29 02:51:10;;;;;;;;;17.75;15.50;;;;;8.43;80.22;102864.59;5079004;27;45419;-76
2022/01/29 02:53:37;;;;;;;;;14.00;11.25;;;;;8.24;80.00;102813.41;5082257;27;45820;-76
2022/01/29 02:56:03;;;;;;;;;13.00;10.75;;;;;7.81;79.77;102737.44;5076208;27;47929;-76
2022/01/29 02:58:28;;;;;;;;;13.50;11.00;;;;;8.43;79.99;102847.00;5078007;27;46035;-76
2022/01/29 03:00:54;;;;;;;;;20.25;15.75;;;;;8.33;80.41;102832.84;5081831;27;45361;-76
2022/01/29 03:03:19;;;;;;;;;12.75;11.25;;;;;8.30;80.08;102821.38;5077947;27;45577;-76
2022/01/29 03:05:45;;;;;;;;;12.25;11.00;;;;;8.30;80.36;102816.97;5074871;27;45305;-76
2022/01/29 03:08:10;;;;;;;;;12.75;11.00;;;;;8.40;79.90;102826.75;5074050;27;45346;-76
2022/01/29 03:10:36;;;;;;;;;10.50;9.00;;;;;8.36;80.25;102826.69;5074402;27;45937;-76
2022/01/29 03:13:02;;;;;;;;;9.00;9.00;;;;;8.38;80.54;102835.50;5087012;27;45307;-76
2022/01/29 03:15:28;;;;;;;;;15.50;15.50;;;;;8.21;80.57;102811.63;5076367;27;46260;-76
2022/01/29 03:17:53;;;;;;;;;23.25;15.25;;;;;8.26;80.67;102801.97;5074167;27;45424;-76
2022/01/29 03:20:18;;;;;;;;;22.25;17.75;;;;;8.26;80.65;102801.09;5079539;27;45485;-77
2022/01/29 03:22:44;;;;;;;;;20.00;19.75;;;;;8.41;80.64;102822.34;5074739;28;45434;-76
2022/01/29 03:25:09;;;;;;;;;17.00;15.50;;;;;8.29;80.80;102798.47;5076259;27;46013;-76
2022/01/29 03:27:35;;;;;;;;;24.25;19.50;;;;;8.01;80.70;102745.53;5083120;27;45548;-76
2022/01/29 03:30:02;;;;;;;;;7.00;6.25;;;;;8.45;80.56;102807.44;5084191;27;45562;-77
2022/01/29 03:32:27;;;;;;;;;10.50;8.50;;;;;8.44;80.57;102803.03;5084049;27;45772;-76
2022/01/29 03:34:53;;;;;;;;;10.50;9.25;;;;;8.41;81.04;102815.34;5081770;27;45632;-77
2022/01/29 03:37:19;;;;;;;;;23.00;17.75;;;;;8.43;80.82;102812.69;5077412;27;45437;-77
2022/01/29 03:39:46;;;;;;;;;9.75;8.75;;;;;8.43;81.34;102809.19;5074688;28;45499;-74
2022/01/29 03:42:13;;;;;;;;;18.75;12.00;;;;;8.37;81.21;102802.06;5076167;27;45297;-75
2022/01/29 03:44:38;;;;;;;;;16.50;12.00;;;;;8.46;81.69;102806.56;5082376;27;45515;-74
2022/01/29 03:47:04;;;;;;;;;12.25;12.00;;;;;8.26;81.25;102772.06;5081103;27;45394;-75
2022/01/29 03:49:29;;;;;;;;;11.50;11.50;;;;;8.39;81.61;102789.81;5075046;27;45402;-74
2022/01/29 03:51:55;;;;;;;;;10.50;9.50;;;;;8.50;81.46;102813.63;5074067;27;45620;-74
2022/01/29 03:54:20;;;;;;;;;9.00;7.50;;;;;8.53;81.30;102811.91;5080536;27;46456;-76
2022/01/29 03:56:45;;;;;;;;;11.50;9.75;;;;;8.57;81.20;102815.47;5081153;27;45509;-76
2022/01/29 03:59:10;;;;;;;;;9.00;9.00;;;;;8.52;81.47;102802.22;5081709;27;45453;-76
2022/01/29 04:01:36;;;;;;;;;10.50;8.25;;;;;8.43;81.88;102782.81;5077059;27;45754;-77
2022/01/29 04:04:01;;;;;;;;;9.00;9.00;;;;;8.48;81.34;102789.88;5075732;27;45600;-74
2022/01/29 04:06:27;;;;;;;;;9.00;6.50;;;;;8.66;80.99;102807.59;5073853;27;45548;-74
2022/01/29 04:08:52;;;;;;;;;10.00;9.00;;;;;8.69;81.00;102788.25;5073841;27;45711;-74
2022/01/29 04:11:18;;;;;;;;;8.75;7.00;;;;;8.53;80.72;102769.69;5074928;27;45498;-74
2022/01/29 04:13:46;;;;;;;;;10.75;8.50;;;;;8.67;81.41;102796.16;5084355;27;45422;-76
2022/01/29 04:16:13;;;;;;;;;8.00;5.00;;;;;8.32;81.31;102728.16;5075027;28;45488;-76
2022/01/29 04:18:39;;;;;;;;;10.75;8.00;;;;;8.20;81.52;102705.22;5073847;28;45512;-77
2022/01/29 04:21:05;;;;;;;;;7.25;6.25;;;;;8.71;81.36;102783.88;5073396;27;45535;-76
2022/01/29 04:23:31;;;;;;;;;8.25;5.75;;;;;8.72;81.53;102775.97;5079844;27;46112;-76
2022/01/29 04:25:57;;;;;;;;;8.25;6.50;;;;;8.48;81.47;102739.75;5074470;27;45568;-76
2022/01/29 04:28:26;;;;;;;;;12.50;8.00;;;;;8.71;81.75;102768.91;5073059;28;45446;-77
2022/01/29 04:30:57;;;;;;;;;5.25;4.00;;;;;8.49;81.50;102730.06;5079897;27;45399;-77
2022/01/29 04:35:49;;;;;;;;;6.50;5.25;;;;;8.76;81.31;102767.16;5075293;27;45366;-76
2022/01/29 04:38:15;;;;;;;;;3.50;3.50;;;;;8.83;81.52;102776.91;5073710;27;45494;-77
2022/01/29 04:40:41;;;;;;;;;5.00;5.00;;;;;8.87;81.43;102776.03;5074907;27;45445;-76
2022/01/29 04:43:07;;;;;;;;;5.25;5.25;;;;;8.67;81.49;102735.44;5073182;27;45560;-76
2022/01/29 04:45:32;;;;;;;;;8.00;6.25;;;;;8.69;81.63;102725.78;5078889;27;45710;-76
2022/01/29 04:47:58;;;;;;;;;6.75;5.00;;;;;8.77;81.73;102753.13;5080134;27;45414;-77
2022/01/29 04:50:24;;;;;;;;;5.75;4.75;;;;;8.93;81.76;102767.25;5075051;27;45405;-76
2022/01/29 04:52:49;;;;;;;;;5.50;3.25;;;;;8.84;81.77;102746.97;5073258;28;45408;-76
2022/01/29 04:55:15;;;;;;;;;5.00;4.75;;;;;8.88;82.30;102761.06;5088338;27;45422;-76
2022/01/29 04:57:41;;;;;;;;;4.00;2.50;;;;;8.92;81.70;102752.31;5073645;27;45437;-77
2022/01/29 05:00:19;;;;;;;;;2.75;2.75;;;;;9.01;81.62;102769.97;5072747;27;45473;-77
2022/01/29 05:02:45;;;;;;;;;4.50;4.00;;;;;9.09;81.46;102773.53;5064950;28;47212;-76
2022/01/29 05:05:10;;;;;;;;;3.75;3.00;;;;;9.06;81.49;102763.81;5070078;28;45549;-77
2022/01/29 05:07:35;;;;;;;;;5.25;4.25;;;;;9.18;81.47;102770.03;5073140;27;45300;-77
2022/01/29 05:10:01;;;;;;;;;3.25;3.00;;;;;9.21;81.47;102768.28;5073513;28;45380;-76
2022/01/29 05:12:33;;;;;;;;;3.00;3.00;;;;;9.01;81.45;102728.56;5073363;27;46161;-76
2022/01/29 05:15:08;;;;;;;;;2.00;2.00;;;;;9.17;81.75;102749.75;5063148;28;45410;-76
2022/01/29 05:28:40;;;;;;;;;4.75;4.50;;;;;9.50;81.97;102759.53;5029384;28;45367;-76
2022/01/29 05:31:05;;;;;;;;;5.75;4.50;;;;;9.54;81.63;102750.75;5010455;28;45447;-77
2022/01/29 05:33:31;;;;;;;;;3.50;2.00;;;;;9.48;81.71;102725.19;5012773;28;48195;-76
2022/01/29 05:35:56;;;;;;;;;10.00;6.00;;;;;9.38;81.51;102699.59;5035005;28;45584;-77
2022/01/29 05:38:22;;;;;;;;;9.00;3.75;;;;;9.53;81.61;102722.56;5030432;28;45453;-77
2022/01/29 05:40:47;;;;;;;;;10.25;3.00;;;;;9.60;81.69;102731.38;5034582;28;45496;-77
2022/01/29 05:43:12;;;;;;;;;7.50;5.50;;;;;9.45;82.00;102717.25;5024532;28;45420;-77
2022/01/29 05:45:38;;;;;;;;;5.25;3.00;;;;;9.69;81.79;102741.97;5023393;28;45510;-77
2022/01/29 05:48:03;;;;;;;;;5.75;3.75;;;;;9.71;81.79;102746.38;5028869;28;45573;-76
2022/01/29 05:50:29;;;;;;;;;9.00;6.25;;;;;9.68;81.69;102734.94;5031772;28;45848;-77
2022/01/29 05:52:54;;;;;;;;;4.00;3.00;;;;;9.51;82.11;102716.38;5034453;28;45347;-77
2022/01/29 05:55:20;;;;;;;;;4.75;4.00;;;;;9.57;82.35;102720.81;5023079;28;45680;-77
2022/01/29 05:57:45;;;;;;;;;4.00;4.00;;;;;9.66;82.33;102734.03;5013784;28;45536;-77
2022/01/29 06:00:11;;;;;;;;;5.00;4.00;;;;;9.75;82.02;102750.78;5059966;27;47598;-77
2022/01/29 06:02:36;;;;;;;;;2.50;2.50;;;;;9.75;82.09;102752.56;5075777;27;45265;-77
2022/01/29 06:05:02;;;;;;;;;4.00;4.00;;;;;9.76;82.73;102747.28;5075968;27;45433;-77
2022/01/29 06:07:27;;;;;;;;;4.50;3.75;;;;;9.62;82.30;102713.75;5078101;27;45382;-77
2022/01/29 06:09:52;;;;;;;;;5.00;4.00;;;;;9.71;82.42;102733.16;5077037;28;45541;-77
2022/01/29 06:12:18;;;;;;;;;10.00;5.00;;;;;9.71;81.99;102734.94;5082699;27;46008;-77
2022/01/29 06:14:43;;;;;;;;;3.50;3.50;;;;;9.58;82.14;102709.34;5083014;27;45377;-77
2022/01/29 06:17:08;;;;;;;;;5.75;4.00;;;;;9.68;82.44;102721.72;5075864;27;45354;-77
2022/01/29 06:19:34;;;;;;;;;3.00;3.00;;;;;9.72;82.65;102734.91;5075761;27;45421;-77
2022/01/29 06:21:59;;;;;;;;;10.00;5.00;;;;;9.51;82.59;102698.75;5080149;27;46337;-77
2022/01/29 06:24:24;;;;;;;;;3.75;3.50;;;;;9.82;82.63;102749.03;5075547;27;45648;-77
2022/01/29 06:26:50;;;;;;;;;3.75;3.25;;;;;9.84;82.47;102749.03;5073607;27;45267;-77
2022/01/29 06:29:15;;;;;;;;;1.25;1.25;;;;;9.76;82.65;102734.06;5073962;28;45414;-77
2022/01/29 06:31:41;;;;;;;;;6.50;3.00;;;;;9.67;82.87;102717.28;5086957;27;45397;-77
2022/01/29 06:34:06;;;;;;;;;3.50;3.50;;;;;9.59;82.80;102704.06;5085340;27;45453;-75
2022/01/29 06:36:31;;;;;;;;;7.75;4.00;;;;;9.88;82.41;102743.75;5076457;27;45367;-77
2022/01/29 06:38:57;;;;;;;;;4.75;3.00;;;;;9.63;82.57;102689.09;5075697;27;45494;-77
2022/01/29 06:41:22;;;;;;;;;4.50;3.00;;;;;9.81;82.04;102723.47;5073323;28;47036;-77
2022/01/29 06:43:47;;;;;;;;;4.25;3.25;;;;;9.77;82.33;102713.78;5073715;27;45779;-77
2022/01/29 06:46:13;;;;;;;;;6.25;3.00;;;;;9.69;82.46;102697.03;5079890;27;45438;-77
2022/01/29 06:48:38;;;;;;;;;2.00;2.00;;;;;9.51;82.71;102672.34;5079570;27;45607;-77
2022/01/29 06:51:04;;;;;;;;;6.00;3.00;;;;;9.80;82.74;102716.44;5080512;27;47768;-77
2022/01/29 06:53:29;;;;;;;;;5.25;3.00;;;;;9.70;82.76;102689.06;5084908;27;45768;-77
2022/01/29 06:55:54;;;;;;;;;4.00;2.25;;;;;9.88;82.39;102719.06;5074759;27;46039;-77
2022/01/29 06:58:20;;;;;;;;;6.00;3.75;;;;;9.83;82.75;102711.13;5076424;27;45310;-77
2022/01/29 07:00:45;;;;;;;;;2.25;2.25;;;;;9.78;83.08;102691.72;5077553;27;47091;-77
2022/01/29 07:03:10;;;;;;;;;1.00;0.00;;;;;9.43;82.89;102631.78;5080871;27;45480;-77
2022/01/29 07:05:36;;;;;;;;;3.00;3.00;;;;;10.00;82.73;102725.25;5084323;27;45839;-77
2022/01/29 07:08:01;;;;;;;;;8.75;3.00;;;;;9.87;82.70;102706.72;5085661;27;45413;-77
2022/01/29 07:10:26;;;;;;;;;4.00;3.00;;;;;9.94;82.87;102705.81;5074860;27;45626;-77
2022/01/29 07:12:52;;;;;;;;;4.25;3.25;;;;;9.70;82.75;102667.06;5075848;28;45437;-77
2022/01/29 07:15:17;;;;;;;;;8.25;3.25;;;;;9.64;83.04;102657.34;5076126;27;45423;-77
2022/01/29 07:17:43;;;;;;;;;4.00;4.00;;;;;10.03;82.45;102716.44;5075643;27;45512;-77
2022/01/29 07:20:08;;;;;;;;;8.75;6.75;;;;;9.95;82.73;102705.84;5081162;27;46266;-77
2022/01/29 07:22:34;;;;;;;;;2.75;1.50;;;;;10.03;82.50;102708.50;5076311;27;45450;-77
2022/01/29 07:24:59;;;;;;;;;5.50;4.00;;;;;9.91;82.72;102685.56;5076093;27;45390;-77
2022/01/29 07:27:25;;;;;;;;;3.00;2.50;;;;;9.93;82.69;102697.00;5078010;27;45377;-77
2022/01/29 07:29:50;;;;;;;;;8.50;6.00;;;;;9.93;82.61;102704.94;5081481;27;48263;-77
2022/01/29 07:32:15;;;;;;;;;6.50;4.25;;;;;9.85;82.67;102682.03;5074472;27;45456;-77
2022/01/29 07:34:41;;;;;;;;;7.50;4.00;;;;;10.05;82.66;102719.06;5087678;27;45661;-77
2022/01/29 07:37:06;;;;;;;;;6.00;5.00;;;;;9.98;82.77;102702.31;5075998;27;45366;-78
2022/01/29 07:39:32;;;;;;;;;7.25;3.50;;;;;9.97;82.39;102697.88;5076875;27;46723;-77
2022/01/29 07:41:58;;;;;;;;;4.25;4.25;;;;;10.07;82.72;102717.31;5080017;27;45445;-77
2022/01/29 07:44:24;;;;;;;;;6.00;4.50;;;;;9.89;82.27;102684.69;5072594;27;45512;-77
2022/01/29 07:46:51;;;;;;;;;10.75;6.00;;;;;10.14;82.76;102716.41;5074754;27;45573;-77
2022/01/29 07:49:16;;;;;;;;;6.25;4.25;;;;;9.80;82.86;102658.25;5079696;27;46554;-77
2022/01/29 07:51:42;;;;;;;;;9.75;4.50;;;;;10.07;83.17;102715.53;5074171;27;45556;-77
2022/01/29 07:54:07;;;;;;;;;6.25;4.00;;;;;9.92;82.51;102684.69;5078096;27;45841;-77
2022/01/29 07:56:33;;;;;;;;;6.00;3.00;;;;;9.93;82.73;102677.63;5083724;27;45574;-78
2022/01/29 07:58:59;;;;;;;;;5.75;3.00;;;;;10.16;82.32;102706.72;5078042;27;45340;-78
2022/01/29 08:01:25;;;;;;;;;5.00;4.00;;;;;10.12;82.80;102702.31;5081640;27;45318;-77
2022/01/29 08:03:51;;;;;;;;;5.00;2.50;;;;;10.19;82.43;102709.34;5074404;27;45471;-77
2022/01/29 08:06:18;;;;;;;;;3.75;3.50;;;;;9.93;82.29;102660.00;5086833;27;45655;-78
2022/01/29 08:08:44;;;;;;;;;3.25;2.00;;;;;10.18;82.37;102702.31;5063483;28;45425;-78
2022/01/29 08:11:12;;;;;;;;;6.75;3.75;;;;;10.19;82.80;102696.13;5073557;27;45478;-77
2022/01/29 08:13:37;;;;;;;;;3.00;3.00;;;;;10.20;82.45;102696.09;5081041;27;45462;-77
2022/01/29 08:16:03;;;;;;;;;7.00;4.75;;;;;10.16;82.83;102686.41;5075958;28;45402;-78
2022/01/29 08:18:29;;;;;;;;;3.50;3.50;;;;;10.18;82.52;102692.59;5074219;27;49298;-78
2022/01/29 08:20:55;;;;;;;;;3.25;2.50;;;;;10.05;82.54;102669.66;5077231;27;45421;-78
2022/01/29 08:23:20;;;;;;;;;4.00;2.25;;;;;10.15;82.60;102694.38;5071616;27;45389;-77
2022/01/29 08:25:46;;;;;;;;;4.00;3.00;;;;;10.22;82.76;102701.41;5079333;27;45271;-78
2022/01/29 08:28:11;;;;;;;;;5.25;4.00;;;;;10.06;82.58;102668.81;5075019;27;45524;-78
2022/01/29 08:30:37;;;;;;;;;5.00;5.00;;;;;10.09;82.84;102659.97;5073368;28;45490;-78
2022/01/29 08:33:02;;;;;;;;;6.00;4.75;;;;;10.29;82.53;102699.66;5080397;27;45556;-77
2022/01/29 08:35:28;;;;;;;;;8.25;3.50;;;;;10.31;82.12;102687.31;5083394;27;45441;-78
2022/01/29 08:37:54;;;;;;;;;13.25;8.25;;;;;9.93;82.34;102622.97;5073125;27;45800;-78
2022/01/29 08:40:20;;;;;;;;;4.50;3.00;;;;;10.33;82.24;102704.97;5074613;27;45508;-78
2022/01/29 08:42:46;;;;;;;;;18.50;13.75;;;;;10.08;82.21;102650.28;5079957;27;45450;-78
2022/01/29 08:45:13;;;;;;;;;7.00;3.50;;;;;10.16;82.57;102673.19;5077717;27;45455;-77
2022/01/29 08:47:41;;;;;;;;;8.25;7.00;;;;;10.33;82.16;102693.50;5073164;27;45704;-77
2022/01/29 08:50:09;;;;;;;;;11.25;4.00;;;;;10.27;82.37;102691.75;5073014;27;45360;-78
2022/01/29 08:52:36;;;;;;;;;14.75;10.50;;;;;10.29;82.38;102668.78;5072959;27;45602;-78
2022/01/29 08:55:02;;;;;;;;;10.75;8.25;;;;;10.37;82.43;102684.66;5083861;27;45401;-78
2022/01/29 08:57:28;;;;;;;;;10.00;10.00;;;;;10.35;82.38;102682.03;5074998;27;46164;-78
2022/01/29 08:59:53;;;;;;;;;14.00;8.00;;;;;9.90;82.08;102604.44;5073086;27;47800;-78
2022/01/29 09:02:18;;;;;;;;;6.25;4.25;;;;;10.37;82.20;102676.72;5078840;27;45518;-77
2022/01/29 09:04:44;;;;;;;;;18.25;10.00;;;;;10.01;81.94;102615.91;5085342;27;45327;-78
2022/01/29 09:07:09;;;;;;;;;14.25;10.50;;;;;10.38;82.41;102674.06;5075783;27;46018;-77
2022/01/29 09:09:36;;;;;;;;;7.00;7.00;;;;;10.12;82.12;102625.59;5076681;27;45534;-76
2022/01/29 09:12:02;;;;;;;;;8.50;3.50;;;;;10.17;82.09;102637.91;5077938;27;45401;-77
2022/01/29 09:14:28;;;;;;;;;11.25;8.50;;;;;10.43;81.75;102690.81;5086827;27;45448;-77
2022/01/29 09:16:53;;;;;;;;;5.00;3.00;;;;;10.22;81.61;102649.38;5076575;27;45393;-77
2022/01/29 09:19:19;;;;;;;;;13.75;7.75;;;;;10.31;81.50;102664.38;5078091;27;45524;-77
2022/01/29 09:21:44;;;;;;;;;4.75;3.75;;;;;10.48;81.69;102692.56;5076813;27;45445;-77
2022/01/29 09:24:09;;;;;;;;;6.75;4.00;;;;;10.35;81.64;102666.16;5076516;27;45480;-77
2022/01/29 09:26:35;;;;;;;;;2.50;2.00;;;;;10.44;81.55;102671.41;5076399;27;46107;-77
2022/01/29 09:29:00;;;;;;;;;6.50;4.50;;;;;10.43;81.22;102666.09;5073225;27;45604;-77
2022/01/29 09:31:26;;;;;;;;;3.50;3.25;;;;;10.36;80.96;102654.66;5077075;27;45534;-77
2022/01/29 09:33:51;;;;;;;;;4.50;4.00;;;;;10.21;81.14;102629.09;5089610;27;45849;-78
2022/01/29 09:36:16;;;;;;;;;8.00;5.00;;;;;10.35;81.30;102642.31;5078965;27;46224;-78
2022/01/29 09:38:42;;;;;;;;;4.50;3.00;;;;;10.43;80.83;102659.03;5076246;27;45324;-78
2022/01/29 09:41:08;;;;;;;;;3.00;2.50;;;;;10.14;80.86;102606.16;5076317;27;45449;-75
2022/01/29 09:43:34;;;;;;;;;5.25;3.50;;;;;10.36;81.36;102643.19;5076237;28;45312;-75
2022/01/29 09:46:02;;;;;;;;;2.00;2.00;;;;;10.50;80.64;102662.56;5077932;27;45994;-75
2022/01/29 09:48:28;;;;;;;;;12.75;10.75;;;;;10.53;81.11;102664.31;5074602;28;45896;-76
2022/01/29 09:50:56;;;;;;;;;6.00;2.50;;;;;10.48;80.27;102653.75;5075483;27;45485;-77
2022/01/29 09:53:21;;;;;;;;;4.00;3.00;;;;;10.35;80.46;102629.09;5075722;27;45468;-76
2022/01/29 09:55:48;;;;;;;;;4.00;3.25;;;;;10.60;80.58;102663.41;5075793;28;45221;-76
2022/01/29 09:58:13;;;;;;;;;5.50;4.00;;;;;10.34;80.79;102627.31;5073567;28;45319;-76
2022/01/29 10:00:39;;;;;;;;;2.50;2.00;;;;;10.59;80.46;102666.91;5075727;27;45704;-76
2022/01/29 10:03:10;;;;;;;;;5.50;1.00;;;;;10.65;80.52;102694.28;5074775;28;45894;-76
2022/01/29 10:05:41;;;;;;;;;4.00;2.25;;;;;10.69;80.22;102689.84;5075072;27;45514;-76
2022/01/29 10:08:07;;;;;;;;;5.00;2.00;;;;;10.71;79.80;102693.38;5076045;27;45585;-76
2022/01/29 10:10:42;;;;;;;;;2.00;2.00;;;;;10.74;80.19;102698.66;5076042;27;45581;-76
2022/01/29 10:13:26;;;;;;;;;2.50;2.00;;;;;10.74;79.44;102703.09;5076202;28;45597;-76
2022/01/29 10:16:03;;;;;;;;;7.50;2.25;;;;;10.76;79.92;102698.66;5071686;28;48552;-76
2022/01/29 10:18:28;;;;;;;;;4.00;2.00;;;;;10.78;79.33;102695.09;5071302;28;45423;-76
2022/01/29 10:21:07;;;;;;;;;1.50;1.50;;;;;10.80;79.29;102695.13;5072461;28;45753;-76
2022/01/29 10:23:32;;;;;;;;;5.00;2.00;;;;;10.80;79.70;102695.13;5075211;27;45396;-76
2022/01/29 10:25:58;;;;;;;;;3.25;2.00;;;;;10.87;79.15;102696.84;5075324;27;45457;-76
2022/01/29 10:28:23;;;;;;;;;3.75;3.00;;;;;10.61;79.10;102646.63;5075075;28;45468;-76
2022/01/29 10:30:48;;;;;;;;;2.75;1.75;;;;;10.90;79.34;102689.75;5076081;28;45246;-76
2022/01/29 10:33:26;;;;;;;;;1.25;1.25;;;;;10.91;79.14;102701.22;5075459;27;45384;-76
2022/01/29 10:35:55;;;;;;;;;5.00;2.00;;;;;10.73;79.11;102659.81;5075165;27;45402;-76
2022/01/29 10:38:24;;;;;;;;;7.00;3.00;;;;;10.96;78.82;102691.50;5075284;27;45453;-76
2022/01/29 10:41:28;;;;;;;;;3.00;0.75;;;;;10.97;79.01;102695.03;5075311;28;45476;-76
2022/01/29 10:44:10;;;;;;;;;2.50;1.00;;;;;10.97;78.54;102684.44;5060098;28;45444;-76
2022/01/29 10:46:42;;;;;;;;;3.75;3.75;;;;;10.59;78.29;102612.22;5075416;28;46075;-76
2022/01/29 10:49:14;;;;;;;;;4.00;0.75;;;;;10.98;78.03;102671.19;5075114;28;45447;-76
2022/01/29 10:51:40;;;;;;;;;6.00;2.00;;;;;10.74;78.70;102613.91;5071993;28;45355;-76
2022/01/29 10:54:19;;;;;;;;;4.50;2.00;;;;;10.96;78.49;102651.75;5075221;27;45421;-77
2022/01/29 10:57:08;;;;;;;;;4.00;1.00;;;;;11.02;78.38;102666.75;5073314;28;47647;-76
2022/01/29 10:59:48;;;;;;;;;1.00;1.00;;;;;11.04;78.48;102676.44;5074781;27;45513;-77
2022/01/29 11:02:15;;;;;;;;;2.00;2.00;;;;;11.02;78.30;102675.56;5074191;27;45359;-76
2022/01/29 11:04:42;;;;;;;;;1.00;1.00;;;;;10.85;77.80;102630.66;5074986;27;45564;-78
2022/01/29 11:07:14;;;;;;;;;1.00;1.00;;;;;10.75;78.39;102606.84;5076383;28;46074;-77
2022/01/29 11:09:43;;;;;;;;;3.00;1.50;;;;;10.95;77.89;102631.47;5074116;28;45541;-76
2022/01/29 11:12:09;;;;;;;;;1.50;1.25;;;;;10.77;77.80;102595.38;5074371;28;45382;-76
2022/01/29 11:14:35;;;;;;;;;1.50;1.00;;;;;10.82;77.75;102604.13;5074687;27;45477;-77
2022/01/29 11:17:02;;;;;;;;;5.00;2.50;;;;;10.77;78.43;102598.00;5074065;28;45484;-77
2022/01/29 11:19:28;;;;;;;;;2.75;1.00;;;;;10.64;78.05;102586.59;5072023;28;45580;-77
2022/01/29 11:21:56;;;;;;;;;2.75;2.25;;;;;10.92;78.39;102626.19;5074164;28;45615;-76
2022/01/29 11:24:25;;;;;;;;;6.25;2.25;;;;;10.83;77.98;102603.28;5074215;28;45563;-76
2022/01/29 11:26:51;;;;;;;;;10.25;3.00;;;;;10.72;78.20;102569.78;5073890;28;46154;-76
2022/01/29 11:29:30;;;;;;;;;3.00;2.00;;;;;10.99;78.33;102603.19;5073506;27;45489;-76
2022/01/29 11:32:24;;;;;;;;;2.25;2.00;;;;;11.11;77.70;102597.78;5059295;28;45361;-77
2022/01/29 11:35:06;;;;;;;;;5.00;2.00;;;;;10.79;77.81;102530.00;5058522;28;45578;-77
2022/01/29 11:37:42;;;;;;;;;3.00;3.00;;;;;11.17;77.77;102589.78;5073866;27;46247;-77